WetterOnline ( https://www.wetteronline.de )

Wetter aktuell Kolkwitz

Aktuelles Wetter: Cottbus (70m)

6-stündlich | Neueste Meldungen
Ortszeit Temperatur Wetter
Mi, 17.04. 8:00 2.9° C wolkenlos
Mi, 17.04. 2:00 5.3° C bedeckt
Di, 16.04. 20:00 9.1° C wolkig
Di, 16.04. 14:00 10.8° C bewölkt
Di, 16.04. 8:00 6.5° C bedeckt
Di, 16.04. 2:00 6.4° C bedeckt
Mo, 15.04. 20:00 13.0° C bewölkt
Mo, 15.04. 14:00 13.0° C bedeckt
Ortszeit Temperatur Wetter
Mi, 17.04. 13:30 10.1° C bedeckt
Mi, 17.04. 13:20 10.1° C bedeckt
Mi, 17.04. 13:10 9.6° C bedeckt
Mi, 17.04. 13:00 9.1° C bedeckt
Mi, 17.04. 12:50 9.1° C bedeckt
Mi, 17.04. 12:40 8.6° C bedeckt
Mi, 17.04. 12:30 8.4° C bedeckt
Mi, 17.04. 12:00 8.0° C bedeckt
Mi, 17.04. 11:30 7.4° C bedeckt
Mi, 17.04. 11:00 6.9° C bedeckt
Mi, 17.04. 10:30 6.5° C bedeckt
Ortszeit Relative Feuchte Sichtweite
Mi, 17.04. 8:00 87% 55 km
Mi, 17.04. 2:00 78% >70 km
Di, 16.04. 20:00 62% 65 km
Di, 16.04. 14:00 47% >70 km
Di, 16.04. 8:00 68% 55 km
Di, 16.04. 2:00 78% >70 km
Mo, 15.04. 20:00 66% 60 km
Mo, 15.04. 14:00 59% 50 km
Ortszeit Relative Feuchte Sichtweite
Mi, 17.04. 13:30 53% >70 km
Mi, 17.04. 13:20 53% -
Mi, 17.04. 13:10 54% -
Mi, 17.04. 13:00 58% 60 km
Mi, 17.04. 12:50 58% -
Mi, 17.04. 12:40 53% -
Mi, 17.04. 12:30 57% 55 km
Mi, 17.04. 12:00 59% 60 km
Mi, 17.04. 11:30 64% 60 km
Mi, 17.04. 11:00 62% >70 km
Mi, 17.04. 10:30 68% 60 km
Ortszeit Niederschlagsmenge Niederschlagsart
Mi, 17.04. 8:00 0.1 l/m2 in 12 Std. -
Mi, 17.04. 2:00 0.1 l/m2 in 6 Std. Sprühregen
Di, 16.04. 20:00 0.1 l/m2 in 12 Std. Regen
Di, 16.04. 14:00 0.0 l/m2 in 6 Std. -
Di, 16.04. 8:00 6 l/m2 in 12 Std. -
Di, 16.04. 2:00 6 l/m2 in 6 Std. Regen
Mo, 15.04. 20:00 0.1 l/m2 in 12 Std. -
Mo, 15.04. 14:00 0.1 l/m2 in 6 Std. Regen
Ortszeit Niederschlagsmenge Niederschlagsart
Mi, 17.04. 13:30 0.0 l/m2 in 30 Min -
Mi, 17.04. 13:20 keine Meldung -
Mi, 17.04. 13:10 keine Meldung -
Mi, 17.04. 13:00 0.0 l/m2 in 1 Std. -
Mi, 17.04. 12:50 keine Meldung -
Mi, 17.04. 12:40 keine Meldung -
Mi, 17.04. 12:30 0.0 l/m2 in 30 Min -
Mi, 17.04. 12:00 0.0 l/m2 in 1 Std. -
Mi, 17.04. 11:30 0.0 l/m2 in 30 Min -
Mi, 17.04. 11:00 0.0 l/m2 in 1 Std. -
Mi, 17.04. 10:30 0.0 l/m2 in 30 Min -
Ortszeit Stärke Spitze Richtung
km/h Bft. km/h Grad Sektor
Mi, 17.04. 8:00 6 1 26 320° NW
Mi, 17.04. 2:00 7 2 25 300° NW
Di, 16.04. 20:00 6 1 44 270° W
Di, 16.04. 14:00 18 3 54 260° W
Di, 16.04. 8:00 22 4 43 240° SW
Di, 16.04. 2:00 18 3 58 260° W
Mo, 15.04. 20:00 11 2 25 120° SO
Mo, 15.04. 14:00 7 2 22 250° W
Ortszeit Stärke Spitze Richtung
km/h Bft. km/h Grad Sektor
Mi, 17.04. 13:30 7 2 14 250° W
Mi, 17.04. 13:20 7 2 - 250° W
Mi, 17.04. 13:10 7 2 - 270° W
Mi, 17.04. 13:00 6 1 20 270° W
Mi, 17.04. 12:50 6 1 - 270° W
Mi, 17.04. 12:40 7 2 - 330° NW
Mi, 17.04. 12:30 7 2 20 300° NW
Mi, 17.04. 12:00 9 2 17 310° NW
Mi, 17.04. 11:30 7 2 14 310° NW
Mi, 17.04. 11:00 7 2 14 320° NW
Mi, 17.04. 10:30 9 2 15 300° NW
Ortszeit Untergrenze Bedeckung Gattung
total tief tief mittel hoch
Mi, 17.04. 8:00 - 0/8 0/8 - - -
Mi, 17.04. 2:00 600 m 8/8 8/8 - - -
Di, 16.04. 20:00 2100 m 6/8 5/8 - - -
Di, 16.04. 14:00 1380 m 7/8 7/8 - - -
Di, 16.04. 8:00 870 m 8/8 8/8 - - -
Di, 16.04. 2:00 870 m 8/8 8/8 - - -
Mo, 15.04. 20:00 2400 m 8/8 7/8 - - -
Mo, 15.04. 14:00 900 m 8/8 8/8 - - -
Ortszeit Bedeckungsgrad in Achtel und Wolkenuntergrenze
Mi, 17.04. 13:30 2(1020m) 4(1260m) 8(1500m)
Mi, 17.04. 13:20 2(1020m) 4(1260m) 8(1500m)
Mi, 17.04. 13:10 8
Mi, 17.04. 13:00 3(1020m) 5(1350m) 8(1500m)
Mi, 17.04. 12:50 3(1020m) 5(1350m) 8(1500m)
Mi, 17.04. 12:40 8
Mi, 17.04. 12:30 2(870m) 3(1020m) 8(1380m)
Mi, 17.04. 12:00 1(780m) 8(1320m)
Mi, 17.04. 11:30 3(750m) 4(930m) 8(1290m)
Mi, 17.04. 11:00 2(780m) 7(990m) 8(1230m)
Mi, 17.04. 10:30 3(600m) 7(810m) 8(960m)
Ortszeit Luftdruck NN (hPa) Tendenz (hPa in 3 Std.)
Mi, 17.04. 8:00 1008 + 2,1
Mi, 17.04. 2:00 1005 + 1,4
Di, 16.04. 20:00 1001 + 0,3
Di, 16.04. 14:00 1001 + 0,1
Di, 16.04. 8:00 1001 + 0,3
Di, 16.04. 2:00 1001 + 3,3
Mo, 15.04. 20:00 999 - 5,0
Mo, 15.04. 14:00 1009 - 2,5
Ortszeit Luftdruck NN (hPa) Tendenz (hPa in 3 Std.)
Mi, 17.04. 13:30 1008 - 0,2
Mi, 17.04. 13:20 1008 keine Meldung
Mi, 17.04. 13:10 1008 keine Meldung
Mi, 17.04. 13:00 1008 - 0,1
Mi, 17.04. 12:50 1008 keine Meldung
Mi, 17.04. 12:40 1008 keine Meldung
Mi, 17.04. 12:30 1008 + 0,2
Mi, 17.04. 12:00 1008 + 0,3
Mi, 17.04. 11:30 1008 + 0,5
Mi, 17.04. 11:00 1008 + 0,6
Mi, 17.04. 10:30 1008 + 0,7
Ortszeit Schneehöhe (cm)
Mi, 17.04. 8:00 0
Mi, 17.04. 2:00 0
Di, 16.04. 20:00 0
Di, 16.04. 14:00 0
Di, 16.04. 8:00 0
Di, 16.04. 2:00 0
Mo, 15.04. 20:00 0
Mo, 15.04. 14:00 0
Ortszeit Schneehöhe (cm)
Mi, 17.04. 13:30 0
Mi, 17.04. 13:20 0
Mi, 17.04. 13:10 -
Mi, 17.04. 13:00 0
Mi, 17.04. 12:50 0
Mi, 17.04. 12:40 -
Mi, 17.04. 12:30 0
Mi, 17.04. 12:00 0
Mi, 17.04. 11:30 0
Mi, 17.04. 11:00 0
Mi, 17.04. 10:30 0
Link zu dieser Seite / Seite empfehlen

Das Wetter in ...